createdAt,value
2018-09-06T00:00:09.397Z,15.60
2018-09-06T00:01:09.370Z,15.61
2018-09-06T00:02:09.343Z,15.67
2018-09-06T00:03:09.316Z,15.59
2018-09-06T00:04:09.289Z,15.60
2018-09-06T00:05:09.260Z,15.63
2018-09-06T00:06:09.233Z,15.57
2018-09-06T00:07:09.205Z,15.70
2018-09-06T00:08:09.178Z,15.68
2018-09-06T00:09:09.151Z,15.70
2018-09-06T00:10:09.124Z,15.70
2018-09-06T00:11:09.095Z,15.72
2018-09-06T00:12:09.069Z,15.72
2018-09-06T00:13:09.042Z,15.74
2018-09-06T00:14:09.021Z,15.68
2018-09-06T00:15:08.987Z,15.76
2018-09-06T00:16:08.962Z,15.75
2018-09-06T00:17:08.933Z,15.81
2018-09-06T00:18:08.904Z,15.84
2018-09-06T00:19:08.880Z,15.81
2018-09-06T00:20:08.852Z,15.70
2018-09-06T00:21:08.824Z,15.88
2018-09-06T00:22:08.798Z,15.78
2018-09-06T00:23:08.769Z,15.75
2018-09-06T00:24:08.742Z,15.86
2018-09-06T00:25:08.715Z,15.85
2018-09-06T00:26:08.689Z,15.82
2018-09-06T00:27:09.425Z,15.81
2018-09-06T00:28:08.636Z,15.81
2018-09-06T00:29:08.607Z,15.79
2018-09-06T00:30:10.420Z,15.82
2018-09-06T00:31:08.553Z,15.85
2018-09-06T00:32:08.527Z,15.84
2018-09-06T00:33:09.426Z,15.85
2018-09-06T00:34:08.475Z,15.84
2018-09-06T00:35:08.444Z,15.86
2018-09-06T00:36:08.926Z,15.92
2018-09-06T00:37:08.391Z,15.89
2018-09-06T00:38:08.364Z,15.78
2018-09-06T00:39:08.337Z,15.81
2018-09-06T00:40:08.311Z,15.84
2018-09-06T00:41:08.285Z,15.82
2018-09-06T00:42:08.257Z,15.82
2018-09-06T00:43:08.228Z,15.86
2018-09-06T00:44:08.205Z,15.81
2018-09-06T00:45:08.174Z,15.81
2018-09-06T00:46:08.150Z,15.88
2018-09-06T00:47:08.121Z,15.89
2018-09-06T00:48:08.095Z,15.85
2018-09-06T00:49:08.065Z,15.89
2018-09-06T00:50:08.041Z,15.92
2018-09-06T00:51:08.013Z,15.88
2018-09-06T00:52:07.989Z,15.85
2018-09-06T00:53:07.960Z,15.84
2018-09-06T00:54:07.934Z,15.88
2018-09-06T00:55:07.907Z,15.86
2018-09-06T00:56:07.879Z,15.85
2018-09-06T00:57:07.853Z,15.92
2018-09-06T00:58:07.827Z,15.79
2018-09-06T00:59:07.807Z,15.81
2018-09-06T01:00:07.772Z,15.82
2018-09-06T01:01:07.745Z,15.89
2018-09-06T01:02:07.719Z,15.94
2018-09-06T01:03:07.691Z,15.94
2018-09-06T01:04:07.663Z,15.93
2018-09-06T01:05:07.637Z,15.93
2018-09-06T01:06:07.612Z,15.92
2018-09-06T01:07:07.583Z,15.89
2018-09-06T01:08:07.558Z,15.92
2018-09-06T01:09:07.534Z,15.93
2018-09-06T01:10:07.504Z,15.93
2018-09-06T01:11:07.475Z,15.81
2018-09-06T01:12:07.449Z,15.94
2018-09-06T01:13:07.423Z,15.86
2018-09-06T01:14:07.395Z,15.94
2018-09-06T01:15:07.367Z,15.97
2018-09-06T01:16:07.344Z,15.92
2018-09-06T01:17:07.316Z,16.00
2018-09-06T01:18:07.288Z,15.96
2018-09-06T01:19:07.262Z,15.99
2018-09-06T01:20:07.934Z,15.97
2018-09-06T01:21:07.210Z,15.97
2018-09-06T01:22:07.185Z,15.97
2018-09-06T01:23:07.154Z,15.97
2018-09-06T01:24:07.129Z,15.99
2018-09-06T01:25:07.101Z,16.06
2018-09-06T01:26:07.078Z,16.09
2018-09-06T01:27:07.047Z,16.07
2018-09-06T01:28:07.021Z,16.06
2018-09-06T01:29:06.998Z,16.06
2018-09-06T01:30:06.969Z,16.07
2018-09-06T01:31:06.940Z,16.12
2018-09-06T01:32:06.912Z,16.04
2018-09-06T01:33:06.887Z,16.14
2018-09-06T01:34:06.864Z,16.14
2018-09-06T01:35:06.836Z,16.18
2018-09-06T01:36:06.808Z,16.16
2018-09-06T01:37:06.782Z,16.15
2018-09-06T01:38:06.756Z,16.20
2018-09-06T01:39:06.728Z,16.09
2018-09-06T01:40:06.703Z,16.20
2018-09-06T01:41:06.676Z,16.14
2018-09-06T01:42:06.649Z,16.25
2018-09-06T01:43:06.622Z,16.18
2018-09-06T01:44:06.599Z,16.20
2018-09-06T01:45:06.568Z,16.20
2018-09-06T01:46:06.541Z,16.12
2018-09-06T01:47:06.514Z,16.22
2018-09-06T01:48:06.487Z,16.14
2018-09-06T01:49:06.461Z,16.18
2018-09-06T01:50:06.439Z,16.27
2018-09-06T01:51:06.409Z,16.33
2018-09-06T01:52:06.382Z,16.30
2018-09-06T01:53:06.356Z,16.18
2018-09-06T01:54:06.329Z,16.18
2018-09-06T01:55:06.302Z,16.25
2018-09-06T01:56:06.275Z,16.30
2018-09-06T01:57:06.249Z,16.27
2018-09-06T01:58:06.221Z,16.26
2018-09-06T01:59:06.197Z,16.26
2018-09-06T02:00:06.169Z,16.23
2018-09-06T02:01:06.143Z,16.33
2018-09-06T02:02:06.116Z,16.30
2018-09-06T02:03:06.090Z,16.30
2018-09-06T02:04:06.064Z,16.26
2018-09-06T02:05:06.036Z,16.27
2018-09-06T02:06:06.009Z,16.33
2018-09-06T02:07:05.982Z,16.34
2018-09-06T02:08:05.954Z,16.34
2018-09-06T02:09:05.930Z,16.31
2018-09-06T02:10:05.901Z,16.34
2018-09-06T02:11:05.879Z,16.27
2018-09-06T02:12:05.849Z,16.35
2018-09-06T02:13:05.824Z,16.34
2018-09-06T02:14:05.798Z,16.34
2018-09-06T02:15:05.771Z,16.44
2018-09-06T02:16:05.746Z,16.44
2018-09-06T02:17:05.717Z,16.38
2018-09-06T02:18:05.691Z,16.34
2018-09-06T02:19:05.663Z,16.42
2018-09-06T02:20:05.639Z,16.48
2018-09-06T02:21:05.615Z,16.34
2018-09-06T02:22:05.588Z,16.33
2018-09-06T02:23:05.557Z,16.35
2018-09-06T02:24:05.532Z,16.34
2018-09-06T02:25:05.505Z,16.30
2018-09-06T02:26:05.479Z,16.30
2018-09-06T02:27:05.451Z,16.27
2018-09-06T02:28:05.426Z,16.16
2018-09-06T02:29:05.403Z,16.18
2018-09-06T02:30:05.372Z,16.20
2018-09-06T02:31:05.346Z,16.18
2018-09-06T02:32:05.320Z,16.15
2018-09-06T02:33:05.294Z,16.15
2018-09-06T02:34:05.266Z,16.16
2018-09-06T02:35:05.240Z,16.25
2018-09-06T02:36:05.212Z,16.14
2018-09-06T02:37:05.186Z,16.12
2018-09-06T02:38:05.163Z,16.15
2018-09-06T02:39:05.132Z,16.07
2018-09-06T02:40:05.106Z,16.15
2018-09-06T02:41:05.080Z,16.14
2018-09-06T02:42:05.054Z,15.97
2018-09-06T02:43:05.024Z,15.99
2018-09-06T02:44:05.001Z,15.94
2018-09-06T02:45:04.972Z,15.94
2018-09-06T02:46:04.949Z,15.93
2018-09-06T02:47:04.920Z,15.97
2018-09-06T02:48:04.893Z,16.03
2018-09-06T02:49:04.865Z,15.97
2018-09-06T02:50:04.841Z,15.97
2018-09-06T02:51:04.815Z,15.97
2018-09-06T02:52:04.786Z,15.96
2018-09-06T02:53:04.759Z,15.92
2018-09-06T02:54:04.733Z,15.96
2018-09-06T02:55:04.705Z,15.97
2018-09-06T02:56:04.680Z,15.86
2018-09-06T02:57:04.653Z,15.93
2018-09-06T02:58:04.626Z,15.93
2018-09-06T02:59:04.599Z,15.93
2018-09-06T03:00:04.573Z,15.89
2018-09-06T03:01:04.545Z,15.94
2018-09-06T03:02:04.519Z,15.93
2018-09-06T03:03:06.448Z,15.86
2018-09-06T03:04:04.463Z,15.88
2018-09-06T03:05:04.439Z,15.85
2018-09-06T03:06:04.412Z,15.89
2018-09-06T03:07:04.383Z,15.94
2018-09-06T03:08:04.358Z,15.93
2018-09-06T03:09:04.332Z,15.94
2018-09-06T03:10:04.306Z,15.97
2018-09-06T03:11:04.277Z,15.96
2018-09-06T03:12:04.251Z,15.96
2018-09-06T03:13:04.223Z,15.92
2018-09-06T03:14:04.197Z,15.92
2018-09-06T03:15:04.169Z,15.93
2018-09-06T03:16:04.146Z,15.89
2018-09-06T03:17:04.118Z,15.94
2018-09-06T03:18:04.090Z,15.97
2018-09-06T03:19:04.063Z,15.89
2018-09-06T03:20:04.036Z,15.89
2018-09-06T03:21:04.011Z,15.92
2018-09-06T03:22:03.985Z,15.89
2018-09-06T03:23:03.957Z,15.94
2018-09-06T03:24:03.929Z,15.99
2018-09-06T03:25:03.911Z,16.00
2018-09-06T03:26:03.879Z,15.97
2018-09-06T03:27:03.848Z,15.99
2018-09-06T03:28:03.823Z,15.96
2018-09-06T03:29:03.796Z,16.00
2018-09-06T03:30:03.771Z,15.97
2018-09-06T03:31:03.742Z,15.88
2018-09-06T03:32:03.716Z,15.93
2018-09-06T03:33:03.689Z,16.00
2018-09-06T03:34:03.662Z,15.96
2018-09-06T03:35:03.633Z,16.00
2018-09-06T03:36:03.622Z,16.01
2018-09-06T03:37:03.579Z,16.00
2018-09-06T03:38:03.555Z,15.97
2018-09-06T03:39:03.528Z,16.00
2018-09-06T03:40:03.503Z,15.99
2018-09-06T03:41:03.475Z,15.96
2018-09-06T03:42:03.447Z,15.96
2018-09-06T03:43:03.421Z,15.93
2018-09-06T03:44:03.398Z,15.92
2018-09-06T03:45:03.368Z,15.93
2018-09-06T03:46:03.343Z,16.01
2018-09-06T03:47:03.314Z,15.99
2018-09-06T03:48:03.287Z,16.00
2018-09-06T03:49:03.262Z,16.01
2018-09-06T03:50:03.235Z,16.09
2018-09-06T03:51:03.963Z,16.11
2018-09-06T03:52:03.179Z,16.00
2018-09-06T03:53:03.154Z,16.06
2018-09-06T03:54:03.127Z,15.96
2018-09-06T03:55:03.100Z,16.01
2018-09-06T03:56:03.076Z,16.00
2018-09-06T03:57:03.047Z,16.00
2018-09-06T03:58:03.021Z,16.00
2018-09-06T03:59:02.995Z,16.11
2018-09-06T04:00:02.972Z,15.99
2018-09-06T04:01:02.942Z,15.96
2018-09-06T04:02:02.912Z,16.00
2018-09-06T04:03:02.886Z,16.01
2018-09-06T04:04:03.466Z,15.96
2018-09-06T04:05:02.834Z,15.94
2018-09-06T04:06:02.807Z,15.93
2018-09-06T04:07:02.779Z,16.00
2018-09-06T04:08:02.754Z,15.96
2018-09-06T04:09:02.727Z,16.01
2018-09-06T04:10:02.702Z,16.03
2018-09-06T04:11:02.672Z,16.03
2018-09-06T04:12:02.645Z,16.09
2018-09-06T04:13:02.620Z,16.07
2018-09-06T04:14:02.595Z,16.00
2018-09-06T04:15:02.569Z,16.06
2018-09-06T04:16:02.541Z,16.06
2018-09-06T04:17:02.513Z,15.97
2018-09-06T04:18:02.485Z,15.99
2018-09-06T04:19:02.458Z,15.97
2018-09-06T04:20:02.434Z,15.96
2018-09-06T04:21:02.409Z,16.01
2018-09-06T04:22:02.383Z,16.01
2018-09-06T04:23:02.353Z,16.07
2018-09-06T04:24:02.326Z,16.01
2018-09-06T04:25:02.299Z,16.04
2018-09-06T04:26:02.274Z,15.99
2018-09-06T04:27:02.244Z,16.06
2018-09-06T04:28:02.220Z,15.99
2018-09-06T04:29:02.195Z,16.04
2018-09-06T04:30:02.167Z,16.00
2018-09-06T04:31:02.137Z,16.04
2018-09-06T04:32:02.114Z,15.97
2018-09-06T04:33:02.088Z,16.09
2018-09-06T04:34:02.063Z,15.97
2018-09-06T04:35:02.032Z,16.03
2018-09-06T04:36:02.023Z,15.99
2018-09-06T04:37:01.983Z,15.97
2018-09-06T04:38:01.954Z,16.11
2018-09-06T04:39:01.925Z,16.14
2018-09-06T04:40:01.897Z,16.03
2018-09-06T04:41:01.871Z,16.07
2018-09-06T04:42:01.844Z,16.14
2018-09-06T04:43:01.824Z,16.11
2018-09-06T04:44:01.793Z,16.06
2018-09-06T04:45:01.765Z,16.03
2018-09-06T04:46:01.740Z,16.09
2018-09-06T04:47:01.713Z,16.04
2018-09-06T04:48:01.685Z,16.07
2018-09-06T04:49:01.658Z,16.06
2018-09-06T04:50:01.632Z,16.06
2018-09-06T04:51:01.607Z,16.16
2018-09-06T04:52:01.577Z,16.16
2018-09-06T04:53:02.477Z,16.20
2018-09-06T04:54:01.523Z,16.04
2018-09-06T04:55:01.496Z,16.14
2018-09-06T04:56:01.471Z,16.14
2018-09-06T04:57:01.443Z,16.15
2018-09-06T04:58:01.416Z,16.14
2018-09-06T04:59:01.403Z,16.16
2018-09-06T05:00:01.370Z,16.15
2018-09-06T05:01:08.960Z,16.15
2018-09-06T05:02:54.173Z,16.11
2018-09-06T05:03:54.117Z,16.15
2018-09-06T05:05:47.424Z,16.14
2018-09-06T05:06:47.395Z,16.14
2018-09-06T05:07:47.369Z,16.12
2018-09-06T05:08:47.342Z,16.15
2018-09-06T05:09:47.315Z,16.14
2018-09-06T05:10:47.287Z,16.14
2018-09-06T05:11:47.262Z,16.16
2018-09-06T05:12:48.021Z,16.16
2018-09-06T05:13:47.206Z,16.11
2018-09-06T05:14:47.182Z,16.15
2018-09-06T05:15:47.154Z,16.12
2018-09-06T05:16:47.128Z,16.23
2018-09-06T05:17:47.102Z,16.14
2018-09-06T05:18:47.075Z,16.18
2018-09-06T05:19:47.048Z,16.22
2018-09-06T05:20:47.022Z,16.18
2018-09-06T05:21:46.994Z,16.16
2018-09-06T05:22:46.971Z,16.22
2018-09-06T05:23:46.944Z,16.26
2018-09-06T05:24:47.532Z,16.18
2018-09-06T05:25:46.890Z,16.26
2018-09-06T05:26:46.864Z,16.23
2018-09-06T05:27:46.837Z,16.31
2018-09-06T05:28:46.811Z,16.27
2018-09-06T05:29:46.786Z,16.20
2018-09-06T05:30:46.790Z,16.18
2018-09-06T05:31:46.732Z,16.20
2018-09-06T05:32:46.706Z,16.15
2018-09-06T05:33:46.680Z,16.14
2018-09-06T05:34:46.652Z,16.20
2018-09-06T05:35:46.627Z,16.23
2018-09-06T05:36:46.602Z,16.23
2018-09-06T05:37:46.573Z,16.18
2018-09-06T05:38:47.529Z,16.30
2018-09-06T05:39:46.519Z,16.14
2018-09-06T05:40:46.495Z,16.20
2018-09-06T05:41:46.474Z,16.23
2018-09-06T05:42:46.442Z,16.26
2018-09-06T05:43:46.413Z,16.20
2018-09-06T05:44:46.388Z,16.27
2018-09-06T05:45:46.364Z,16.33
2018-09-06T05:46:46.337Z,16.27
2018-09-06T05:47:46.310Z,16.34
2018-09-06T05:48:46.287Z,16.34
2018-09-06T05:49:46.263Z,16.34
2018-09-06T05:50:46.233Z,16.30
2018-09-06T05:51:46.205Z,16.34
2018-09-06T05:52:46.197Z,16.35
2018-09-06T05:53:46.153Z,16.38
2018-09-06T05:54:46.125Z,16.41
2018-09-06T05:55:46.101Z,16.40
2018-09-06T05:56:46.074Z,16.41
2018-09-06T05:57:46.047Z,16.44
2018-09-06T05:58:46.534Z,16.44
2018-09-06T05:59:45.996Z,16.33
2018-09-06T06:00:45.972Z,16.38
2018-09-06T06:01:45.946Z,16.50
2018-09-06T06:02:45.917Z,16.52
2018-09-06T06:03:45.890Z,16.60
2018-09-06T06:04:46.533Z,16.63
2018-09-06T06:05:45.839Z,16.62
2018-09-06T06:06:45.814Z,16.53
2018-09-06T06:07:45.785Z,16.63
2018-09-06T06:08:45.761Z,16.65
2018-09-06T06:09:45.734Z,16.73
2018-09-06T06:10:45.708Z,16.75
2018-09-06T06:11:45.735Z,16.71
2018-09-06T06:12:45.658Z,16.81
2018-09-06T06:13:45.632Z,16.80
2018-09-06T06:14:45.606Z,16.81
2018-09-06T06:15:45.578Z,16.83
2018-09-06T06:16:45.552Z,16.83
2018-09-06T06:17:45.527Z,16.80
2018-09-06T06:18:45.501Z,16.96
2018-09-06T06:19:45.474Z,16.93
2018-09-06T06:20:45.451Z,17.03
2018-09-06T06:21:45.424Z,17.07
2018-09-06T06:22:45.400Z,17.04
2018-09-06T06:23:46.039Z,17.00
2018-09-06T06:24:45.350Z,17.07
2018-09-06T06:25:45.323Z,17.08
2018-09-06T06:26:45.296Z,17.07
2018-09-06T06:27:45.269Z,17.00
2018-09-06T06:28:45.249Z,17.07
2018-09-06T06:29:45.220Z,17.07
2018-09-06T06:30:45.196Z,17.00
2018-09-06T06:31:45.175Z,17.06
2018-09-06T06:32:45.145Z,17.04
2018-09-06T06:33:45.118Z,16.92
2018-09-06T06:34:45.094Z,16.93
2018-09-06T06:35:45.068Z,16.98
2018-09-06T06:36:45.062Z,17.00
2018-09-06T06:37:45.017Z,17.00
2018-09-06T06:38:44.992Z,17.07
2018-09-06T06:39:45.018Z,17.08
2018-09-06T06:40:44.941Z,17.20
2018-09-06T06:41:44.914Z,17.28
2018-09-06T06:42:44.889Z,17.17
2018-09-06T06:43:44.863Z,17.14
2018-09-06T06:44:44.839Z,17.17
2018-09-06T06:45:44.815Z,17.15
2018-09-06T06:46:44.786Z,17.25
2018-09-06T06:47:44.762Z,17.29
2018-09-06T06:48:45.538Z,17.41
2018-09-06T06:49:44.713Z,17.28
2018-09-06T06:50:44.688Z,17.38
2018-09-06T06:51:44.661Z,17.44
2018-09-06T06:52:44.637Z,17.41
2018-09-06T06:53:44.612Z,17.47
2018-09-06T06:54:45.544Z,17.35
2018-09-06T06:55:44.563Z,17.41
2018-09-06T06:56:44.561Z,17.41
2018-09-06T06:57:44.512Z,17.46
2018-09-06T06:58:44.488Z,17.47
2018-09-06T06:59:44.467Z,17.51
2018-09-06T07:00:44.440Z,17.70
2018-09-06T07:01:45.045Z,17.67
2018-09-06T07:02:44.389Z,17.57
2018-09-06T07:03:44.364Z,17.59
2018-09-06T07:04:44.412Z,17.64
2018-09-06T07:05:44.311Z,17.63
2018-09-06T07:06:44.347Z,17.79
2018-09-06T07:07:44.267Z,17.81
2018-09-06T07:08:44.235Z,17.99
2018-09-06T07:09:44.215Z,18.06
2018-09-06T07:10:44.191Z,17.97
2018-09-06T07:11:44.167Z,18.02
2018-09-06T07:12:44.141Z,18.06
2018-09-06T07:13:44.118Z,18.06
2018-09-06T07:14:44.096Z,18.09
2018-09-06T07:15:44.071Z,18.19
2018-09-06T07:16:44.048Z,18.17
2018-09-06T07:17:44.021Z,18.19
2018-09-06T07:18:45.618Z,18.18
2018-09-06T07:19:43.972Z,18.18
2018-09-06T07:20:43.948Z,18.13
2018-09-06T07:21:43.932Z,18.21
2018-09-06T07:22:43.900Z,18.17
2018-09-06T07:23:43.878Z,18.27
2018-09-06T07:24:43.853Z,18.29
2018-09-06T07:25:43.829Z,18.25
2018-09-06T07:26:43.806Z,18.28
2018-09-06T07:27:43.780Z,18.43
2018-09-06T07:28:43.786Z,18.33
2018-09-06T07:29:43.739Z,18.31
2018-09-06T07:30:43.709Z,18.34
2018-09-06T07:31:43.687Z,18.61
2018-09-06T07:32:43.662Z,18.57
2018-09-06T07:33:43.638Z,18.82
2018-09-06T07:34:43.621Z,18.95
2018-09-06T07:35:43.591Z,19.01
2018-09-06T07:36:43.568Z,19.23
2018-09-06T07:37:43.546Z,19.23
2018-09-06T07:38:43.524Z,19.28
2018-09-06T07:39:43.501Z,19.28
2018-09-06T07:40:43.477Z,19.42
2018-09-06T07:41:43.455Z,19.51
2018-09-06T07:42:43.429Z,19.54
2018-09-06T07:43:43.406Z,19.50
2018-09-06T07:44:43.383Z,19.51
2018-09-06T07:45:43.370Z,19.42
2018-09-06T07:46:43.360Z,19.40
2018-09-06T07:47:43.318Z,19.47
2018-09-06T07:48:43.294Z,19.24
2018-09-06T07:49:43.272Z,19.25
2018-09-06T07:50:43.249Z,19.25
2018-09-06T07:51:43.247Z,19.33
2018-09-06T07:52:43.216Z,19.35
2018-09-06T07:53:43.181Z,19.51
2018-09-06T07:54:43.160Z,19.48
2018-09-06T07:55:43.135Z,19.55
2018-09-06T07:56:43.113Z,19.68
2018-09-06T07:57:43.091Z,19.66
2018-09-06T07:58:43.068Z,19.86
2018-09-06T07:59:43.044Z,19.73
2018-09-06T08:00:43.019Z,19.72
2018-09-06T08:01:43.058Z,19.58
2018-09-06T08:02:42.978Z,19.60
2018-09-06T08:03:42.958Z,19.58
2018-09-06T08:04:42.933Z,19.61
2018-09-06T08:05:42.913Z,19.54
2018-09-06T08:06:42.895Z,19.70
2018-09-06T08:07:42.871Z,19.78
2018-09-06T08:08:42.848Z,19.98
2018-09-06T08:09:42.824Z,20.00
2018-09-06T08:10:42.800Z,20.16
2018-09-06T08:11:42.778Z,20.21
2018-09-06T08:12:42.755Z,20.21
2018-09-06T08:13:42.732Z,20.23
2018-09-06T08:14:42.711Z,19.95
2018-09-06T08:15:42.688Z,19.88
2018-09-06T08:16:42.664Z,19.68
2018-09-06T08:17:42.644Z,19.83
2018-09-06T08:18:42.658Z,19.95
2018-09-06T08:19:42.599Z,19.93
2018-09-06T08:20:42.580Z,19.83
2018-09-06T08:21:42.556Z,19.78
2018-09-06T08:22:42.536Z,19.90
2018-09-06T08:23:42.511Z,20.08
2018-09-06T08:24:42.489Z,20.12
2018-09-06T08:25:42.469Z,20.15
2018-09-06T08:26:42.447Z,20.10
2018-09-06T08:27:42.421Z,20.05
2018-09-06T08:28:42.403Z,20.10
2018-09-06T08:29:42.382Z,20.16
2018-09-06T08:30:42.432Z,20.38
2018-09-06T08:31:42.337Z,20.49
2018-09-06T08:32:42.314Z,20.41
2018-09-06T08:33:42.295Z,20.46
2018-09-06T08:34:42.269Z,20.58
2018-09-06T08:35:42.242Z,20.64
2018-09-06T08:36:42.231Z,20.72
2018-09-06T08:37:42.205Z,20.80
2018-09-06T08:38:42.187Z,20.76
2018-09-06T08:39:42.158Z,20.65
2018-09-06T08:40:42.139Z,20.49
2018-09-06T08:41:42.117Z,20.43
2018-09-06T08:42:42.093Z,20.47
2018-09-06T08:43:42.074Z,20.54
2018-09-06T08:44:42.052Z,20.69
2018-09-06T08:45:42.033Z,20.74
2018-09-06T08:46:42.014Z,20.90
2018-09-06T08:47:42.055Z,20.89
2018-09-06T08:48:41.964Z,20.83
2018-09-06T08:49:41.946Z,21.02
2018-09-06T08:50:41.929Z,21.16
2018-09-06T08:51:41.901Z,21.35
2018-09-06T08:52:41.974Z,21.26
2018-09-06T08:53:41.860Z,21.14
2018-09-06T08:54:41.838Z,21.16
2018-09-06T08:55:41.816Z,21.13
2018-09-06T08:56:41.794Z,21.16
2018-09-06T08:57:41.774Z,21.19
2018-09-06T08:58:41.754Z,21.32
2018-09-06T08:59:41.731Z,21.14
2018-09-06T09:00:41.737Z,21.16
2018-09-06T09:01:41.691Z,21.11
2018-09-06T09:02:41.753Z,21.13
2018-09-06T09:03:41.647Z,21.26
2018-09-06T09:04:41.674Z,21.21
2018-09-06T09:05:41.605Z,21.23
2018-09-06T09:06:41.586Z,21.30
2018-09-06T09:07:41.591Z,21.17
2018-09-06T09:08:41.544Z,21.14
2018-09-06T09:09:41.522Z,21.35
2018-09-06T09:10:41.504Z,21.32
2018-09-06T09:11:41.480Z,21.42
2018-09-06T09:12:41.462Z,21.39
2018-09-06T09:13:41.439Z,21.51
2018-09-06T09:14:41.417Z,21.34
2018-09-06T09:15:41.398Z,21.19
2018-09-06T09:16:41.376Z,21.16
2018-09-06T09:17:41.355Z,21.19
2018-09-06T09:18:41.339Z,21.20
2018-09-06T09:19:41.312Z,21.09
2018-09-06T09:20:41.293Z,21.16
2018-09-06T09:21:41.321Z,21.20
2018-09-06T09:22:41.252Z,21.16
2018-09-06T09:23:41.229Z,21.21
2018-09-06T09:24:41.209Z,21.09
2018-09-06T09:25:41.270Z,21.11
2018-09-06T09:26:41.168Z,21.17
2018-09-06T09:27:41.147Z,21.29
2018-09-06T09:28:41.126Z,21.45
2018-09-06T09:29:41.106Z,21.50
2018-09-06T09:30:41.132Z,21.67
2018-09-06T09:31:41.065Z,21.67
2018-09-06T09:32:41.043Z,21.64
2018-09-06T09:33:41.022Z,21.59
2018-09-06T09:34:41.004Z,21.60
2018-09-06T09:35:41.580Z,21.94
2018-09-06T09:36:40.960Z,21.91
2018-09-06T09:37:40.940Z,21.66
2018-09-06T09:38:40.920Z,21.75
2018-09-06T09:39:40.896Z,21.59
2018-09-06T09:40:40.885Z,21.42
2018-09-06T09:41:40.857Z,21.36
2018-09-06T09:42:40.841Z,21.54
2018-09-06T09:43:40.823Z,21.50
2018-09-06T09:44:40.794Z,21.66
2018-09-06T09:45:40.775Z,21.57
2018-09-06T09:48:24.719Z,21.48
2018-09-06T09:49:24.747Z,21.57
2018-09-06T09:51:17.534Z,21.74
2018-09-06T09:52:17.494Z,21.71
2018-09-06T09:54:11.134Z,21.91
2018-09-06T09:55:11.089Z,21.85
2018-09-06T09:57:04.304Z,21.82
2018-09-06T09:58:04.179Z,21.69
2018-09-06T09:59:57.520Z,21.67
2018-09-06T10:00:57.477Z,21.64
2018-09-06T10:02:50.339Z,21.64
2018-09-06T10:04:42.698Z,21.53
2018-09-06T10:05:42.665Z,21.63
2018-09-06T10:07:35.981Z,21.61
2018-09-06T10:08:35.958Z,21.79
2018-09-06T10:10:29.311Z,21.75
2018-09-06T10:11:29.264Z,21.79
2018-09-06T10:13:22.385Z,21.72
2018-09-06T10:14:22.358Z,21.82
2018-09-06T10:16:15.310Z,21.75
2018-09-06T10:17:15.160Z,21.54
2018-09-06T10:18:15.230Z,21.54
2018-09-06T10:19:15.115Z,21.48
2018-09-06T10:20:15.100Z,21.57
2018-09-06T10:21:15.073Z,21.64
2018-09-06T10:22:15.055Z,21.67
2018-09-06T10:23:15.034Z,21.66
2018-09-06T10:24:15.012Z,21.91
2018-09-06T10:25:14.994Z,21.81
2018-09-06T10:26:14.973Z,21.82
2018-09-06T10:27:14.950Z,21.90
2018-09-06T10:28:14.931Z,21.85
2018-09-06T10:29:14.909Z,21.95
2018-09-06T10:30:14.888Z,21.98
2018-09-06T10:31:14.869Z,21.98
2018-09-06T10:32:14.847Z,22.19
2018-09-06T10:33:14.832Z,22.32
2018-09-06T10:34:14.807Z,22.34
2018-09-06T10:35:14.853Z,22.22
2018-09-06T10:36:14.767Z,21.90
2018-09-06T10:37:14.806Z,21.97
2018-09-06T10:38:14.729Z,22.02
2018-09-06T10:39:14.752Z,21.90
2018-09-06T10:40:14.685Z,21.99
2018-09-06T10:41:14.664Z,22.23
2018-09-06T10:42:14.643Z,22.23
2018-09-06T10:43:14.624Z,22.14
2018-09-06T10:44:14.607Z,22.23
2018-09-06T10:45:14.585Z,22.20
2018-09-06T10:46:14.564Z,22.25
2018-09-06T10:47:14.546Z,22.39
2018-09-06T10:48:14.522Z,22.46
2018-09-06T10:49:16.273Z,22.32
2018-09-06T10:50:14.526Z,22.34
2018-09-06T10:51:14.458Z,22.34
2018-09-06T10:52:14.437Z,22.34
2018-09-06T10:53:14.423Z,22.46
2018-09-06T10:54:14.400Z,22.52
2018-09-06T10:55:14.389Z,22.50
2018-09-06T10:56:15.280Z,22.46
2018-09-06T10:57:14.340Z,22.49
2018-09-06T10:58:14.320Z,22.49
2018-09-06T10:59:14.299Z,22.53
2018-09-06T11:00:14.279Z,22.49
2018-09-06T11:01:14.264Z,22.43
2018-09-06T11:02:14.241Z,22.44
2018-09-06T11:03:14.784Z,22.44
2018-09-06T11:04:14.202Z,22.47
2018-09-06T11:05:14.180Z,22.39
2018-09-06T11:06:14.160Z,22.52
2018-09-06T11:07:14.140Z,22.65
2018-09-06T11:08:14.139Z,22.59
2018-09-06T11:09:14.095Z,22.50
2018-09-06T11:10:14.076Z,22.53
2018-09-06T11:11:14.055Z,22.43
2018-09-06T11:12:14.041Z,22.38
2018-09-06T11:13:14.025Z,22.50
2018-09-06T11:14:13.999Z,22.57
2018-09-06T11:15:15.783Z,22.71
2018-09-06T11:16:13.957Z,22.49
2018-09-06T11:17:13.939Z,22.29
2018-09-06T11:18:13.919Z,22.31
2018-09-06T11:19:13.900Z,22.49
2018-09-06T11:20:13.881Z,22.64
2018-09-06T11:21:13.890Z,22.77
2018-09-06T11:22:14.040Z,22.93
2018-09-06T11:23:13.820Z,22.96
2018-09-06T11:24:13.800Z,22.96
2018-09-06T11:25:13.780Z,23.12
2018-09-06T11:26:13.761Z,23.23
2018-09-06T11:27:13.739Z,23.26
2018-09-06T11:28:13.723Z,23.19
2018-09-06T11:29:13.728Z,23.35
2018-09-06T11:30:13.680Z,23.46
2018-09-06T11:31:13.662Z,23.46
2018-09-06T11:32:13.641Z,23.34
2018-09-06T11:33:13.623Z,23.15
2018-09-06T11:34:13.601Z,23.05
2018-09-06T11:35:13.582Z,23.20
2018-09-06T11:36:13.562Z,23.39
2018-09-06T11:37:13.540Z,23.27
2018-09-06T11:38:13.523Z,23.17
2018-09-06T11:39:13.504Z,22.94
2018-09-06T11:40:13.588Z,22.96
2018-09-06T11:41:13.462Z,22.99
2018-09-06T11:42:13.445Z,23.02
2018-09-06T11:43:13.425Z,22.99
2018-09-06T11:44:13.405Z,23.08
2018-09-06T11:45:13.383Z,23.14
2018-09-06T11:46:13.368Z,23.05
2018-09-06T11:47:13.409Z,22.80
2018-09-06T11:48:13.325Z,22.94
2018-09-06T11:49:13.306Z,23.12
2018-09-06T11:50:13.288Z,23.22
2018-09-06T11:51:13.290Z,23.14
2018-09-06T11:52:13.249Z,23.12
2018-09-06T11:53:13.230Z,23.17
2018-09-06T11:54:13.209Z,23.31
2018-09-06T11:55:13.190Z,23.39
2018-09-06T11:56:13.173Z,23.17
2018-09-06T11:57:13.152Z,23.22
2018-09-06T11:58:13.132Z,23.23
2018-09-06T11:59:13.112Z,23.39
2018-09-06T12:00:13.090Z,23.35
2018-09-06T12:01:13.156Z,23.31
2018-09-06T12:02:13.233Z,23.38
2018-09-06T12:03:13.033Z,23.65
2018-09-06T12:04:13.013Z,23.60
2018-09-06T12:05:12.992Z,23.55
2018-09-06T12:06:13.006Z,23.62
2018-09-06T12:07:12.953Z,23.67
2018-09-06T12:08:12.936Z,23.50
2018-09-06T12:09:12.915Z,23.45
2018-09-06T12:10:12.939Z,23.34
2018-09-06T12:11:12.881Z,23.42
2018-09-06T12:12:12.861Z,23.45
2018-09-06T12:13:12.839Z,23.29
2018-09-06T12:14:12.820Z,23.19
2018-09-06T12:15:12.799Z,23.20
2018-09-06T12:16:12.780Z,23.38
2018-09-06T12:17:12.823Z,23.38
2018-09-06T12:18:12.740Z,23.39
2018-09-06T12:19:12.719Z,23.26
2018-09-06T12:20:12.702Z,23.35
2018-09-06T12:21:12.694Z,23.53
2018-09-06T12:22:12.663Z,23.52
2018-09-06T12:23:12.642Z,23.58
2018-09-06T12:24:12.625Z,23.40
2018-09-06T12:25:12.670Z,23.27
2018-09-06T12:26:12.583Z,23.43
2018-09-06T12:27:12.566Z,23.46
2018-09-06T12:28:12.547Z,23.40
2018-09-06T12:29:12.524Z,23.46
2018-09-06T12:30:12.506Z,23.60
2018-09-06T12:31:12.487Z,23.53
2018-09-06T12:32:12.469Z,23.47
2018-09-06T12:33:12.622Z,23.46
2018-09-06T12:34:12.428Z,23.15
2018-09-06T12:35:12.408Z,23.11
2018-09-06T12:36:12.416Z,23.11
2018-09-06T12:37:12.370Z,23.07
2018-09-06T12:38:12.350Z,22.99
2018-09-06T12:39:12.330Z,23.17
2018-09-06T12:40:12.809Z,23.34
2018-09-06T12:41:12.291Z,23.35
2018-09-06T12:42:12.271Z,23.50
2018-09-06T12:43:12.254Z,23.53
2018-09-06T12:44:12.231Z,23.60
2018-09-06T12:45:12.215Z,23.71
2018-09-06T12:46:12.195Z,23.89
2018-09-06T12:47:12.178Z,23.87
2018-09-06T12:48:12.154Z,24.10
2018-09-06T12:49:12.134Z,24.08
2018-09-06T12:50:12.113Z,24.24
2018-09-06T12:51:12.097Z,24.31
2018-09-06T12:52:12.075Z,24.45
2018-09-06T12:53:12.056Z,24.37
2018-09-06T12:54:12.031Z,24.14
2018-09-06T12:55:12.021Z,24.00
2018-09-06T12:56:11.995Z,23.62
2018-09-06T12:57:12.813Z,23.62
2018-09-06T12:58:11.956Z,23.72
2018-09-06T12:59:11.938Z,23.67
2018-09-06T13:00:11.920Z,23.71
2018-09-06T13:01:12.819Z,23.76
2018-09-06T13:02:11.880Z,23.76
2018-09-06T13:03:11.861Z,23.86
2018-09-06T13:04:11.842Z,24.07